sensor_id;sensor_type;location;lat;lon;timestamp;temperature;humidity
19435;DHT22;9853;50.848;4.108;2023-08-17T00:01:30;19.50;99.90
19435;DHT22;9853;50.848;4.108;2023-08-17T00:03:31;19.60;99.90
19435;DHT22;9853;50.848;4.108;2023-08-17T00:05:31;19.60;99.90
19435;DHT22;9853;50.848;4.108;2023-08-17T00:07:33;19.50;99.90
19435;DHT22;9853;50.848;4.108;2023-08-17T00:09:34;19.50;99.90
19435;DHT22;9853;50.848;4.108;2023-08-17T00:11:35;19.70;99.90
19435;DHT22;9853;50.848;4.108;2023-08-17T00:13:36;19.60;99.90
19435;DHT22;9853;50.848;4.108;2023-08-17T00:15:36;19.40;99.90
19435;DHT22;9853;50.848;4.108;2023-08-17T00:17:37;19.30;99.90
19435;DHT22;9853;50.848;4.108;2023-08-17T00:19:38;19.20;99.90
19435;DHT22;9853;50.848;4.108;2023-08-17T00:21:39;19.10;99.90
19435;DHT22;9853;50.848;4.108;2023-08-17T00:23:40;19.10;99.90
19435;DHT22;9853;50.848;4.108;2023-08-17T00:25:41;19.10;99.90
19435;DHT22;9853;50.848;4.108;2023-08-17T00:27:41;19.10;99.90
19435;DHT22;9853;50.848;4.108;2023-08-17T00:29:42;19.10;99.90
19435;DHT22;9853;50.848;4.108;2023-08-17T00:31:43;19.00;99.90
19435;DHT22;9853;50.848;4.108;2023-08-17T00:33:43;19.00;99.90
19435;DHT22;9853;50.848;4.108;2023-08-17T00:35:44;19.20;99.90
19435;DHT22;9853;50.848;4.108;2023-08-17T00:37:46;19.30;99.90
19435;DHT22;9853;50.848;4.108;2023-08-17T00:39:47;19.40;99.90
19435;DHT22;9853;50.848;4.108;2023-08-17T00:41:47;19.40;99.90
19435;DHT22;9853;50.848;4.108;2023-08-17T00:43:48;19.50;99.90
19435;DHT22;9853;50.848;4.108;2023-08-17T00:45:49;19.30;99.90
19435;DHT22;9853;50.848;4.108;2023-08-17T00:47:49;19.40;99.90
19435;DHT22;9853;50.848;4.108;2023-08-17T00:49:50;19.30;99.90
19435;DHT22;9853;50.848;4.108;2023-08-17T00:51:51;19.20;99.90
19435;DHT22;9853;50.848;4.108;2023-08-17T00:53:59;19.10;99.90
19435;DHT22;9853;50.848;4.108;2023-08-17T00:56:01;19.00;99.90
19435;DHT22;9853;50.848;4.108;2023-08-17T00:58:02;18.90;99.90
19435;DHT22;9853;50.848;4.108;2023-08-17T01:00:03;18.90;99.90
19435;DHT22;9853;50.848;4.108;2023-08-17T01:02:05;18.90;99.90
19435;DHT22;9853;50.848;4.108;2023-08-17T01:04:06;19.00;99.90
19435;DHT22;9853;50.848;4.108;2023-08-17T01:06:06;18.80;99.90
19435;DHT22;9853;50.848;4.108;2023-08-17T01:08:07;18.90;99.90
19435;DHT22;9853;50.848;4.108;2023-08-17T01:10:10;18.90;99.90
19435;DHT22;9853;50.848;4.108;2023-08-17T01:14:37;18.60;99.90
19435;DHT22;9853;50.848;4.108;2023-08-17T01:16:50;18.60;99.90
19435;DHT22;9853;50.848;4.108;2023-08-17T01:18:52;18.60;99.90
19435;DHT22;9853;50.848;4.108;2023-08-17T01:20:54;18.60;99.90
19435;DHT22;9853;50.848;4.108;2023-08-17T01:22:56;18.60;99.90
19435;DHT22;9853;50.848;4.108;2023-08-17T01:24:59;18.60;99.90
19435;DHT22;9853;50.848;4.108;2023-08-17T01:27:00;18.60;99.90
19435;DHT22;9853;50.848;4.108;2023-08-17T01:29:00;18.80;99.90
19435;DHT22;9853;50.848;4.108;2023-08-17T01:31:11;18.90;99.90
19435;DHT22;9853;50.848;4.108;2023-08-17T01:33:24;19.00;99.90
19435;DHT22;9853;50.848;4.108;2023-08-17T01:35:34;19.10;99.90
19435;DHT22;9853;50.848;4.108;2023-08-17T01:37:40;19.00;99.90
19435;DHT22;9853;50.848;4.108;2023-08-17T01:39:44;19.20;99.90
19435;DHT22;9853;50.848;4.108;2023-08-17T01:41:46;19.20;99.90
19435;DHT22;9853;50.848;4.108;2023-08-17T01:43:47;19.50;99.90
19435;DHT22;9853;50.848;4.108;2023-08-17T01:45:48;19.50;99.90
19435;DHT22;9853;50.848;4.108;2023-08-17T01:47:49;19.40;99.90
19435;DHT22;9853;50.848;4.108;2023-08-17T01:49:50;19.50;99.90
19435;DHT22;9853;50.848;4.108;2023-08-17T01:51:51;19.50;99.90
19435;DHT22;9853;50.848;4.108;2023-08-17T01:53:52;19.50;99.90
19435;DHT22;9853;50.848;4.108;2023-08-17T01:55:52;19.60;99.90
19435;DHT22;9853;50.848;4.108;2023-08-17T01:57:53;19.60;99.90
19435;DHT22;9853;50.848;4.108;2023-08-17T01:59:54;19.40;99.90
19435;DHT22;9853;50.848;4.108;2023-08-17T02:01:54;19.50;99.90
19435;DHT22;9853;50.848;4.108;2023-08-17T02:03:55;19.30;99.90
19435;DHT22;9853;50.848;4.108;2023-08-17T02:05:56;19.30;99.90
19435;DHT22;9853;50.848;4.108;2023-08-17T02:07:57;19.20;99.90
19435;DHT22;9853;50.848;4.108;2023-08-17T02:09:58;19.20;99.90
19435;DHT22;9853;50.848;4.108;2023-08-17T02:12:00;19.10;99.90
19435;DHT22;9853;50.848;4.108;2023-08-17T02:14:01;19.10;99.90
19435;DHT22;9853;50.848;4.108;2023-08-17T02:16:02;19.10;99.90
19435;DHT22;9853;50.848;4.108;2023-08-17T02:18:03;19.00;99.90
19435;DHT22;9853;50.848;4.108;2023-08-17T02:20:04;19.00;99.90
19435;DHT22;9853;50.848;4.108;2023-08-17T02:22:05;19.10;99.90
19435;DHT22;9853;50.848;4.108;2023-08-17T02:24:06;19.10;99.90
19435;DHT22;9853;50.848;4.108;2023-08-17T02:26:07;19.00;99.90
19435;DHT22;9853;50.848;4.108;2023-08-17T02:28:07;19.00;99.90
19435;DHT22;9853;50.848;4.108;2023-08-17T02:30:09;18.90;99.90
19435;DHT22;9853;50.848;4.108;2023-08-17T02:32:09;18.90;99.90
19435;DHT22;9853;50.848;4.108;2023-08-17T02:34:10;18.70;99.90
19435;DHT22;9853;50.848;4.108;2023-08-17T02:36:11;18.70;99.90
19435;DHT22;9853;50.848;4.108;2023-08-17T02:38:12;18.70;99.90
19435;DHT22;9853;50.848;4.108;2023-08-17T02:40:12;18.70;99.90
19435;DHT22;9853;50.848;4.108;2023-08-17T02:42:13;18.60;99.90
19435;DHT22;9853;50.848;4.108;2023-08-17T02:44:14;18.60;99.90
19435;DHT22;9853;50.848;4.108;2023-08-17T02:46:15;18.50;99.90
19435;DHT22;9853;50.848;4.108;2023-08-17T02:48:16;18.40;99.90
19435;DHT22;9853;50.848;4.108;2023-08-17T02:50:17;18.40;99.90
19435;DHT22;9853;50.848;4.108;2023-08-17T02:52:18;18.30;99.90
19435;DHT22;9853;50.848;4.108;2023-08-17T02:54:18;18.30;99.90
19435;DHT22;9853;50.848;4.108;2023-08-17T02:56:19;18.30;99.90
19435;DHT22;9853;50.848;4.108;2023-08-17T02:58:22;18.40;99.90
19435;DHT22;9853;50.848;4.108;2023-08-17T03:00:22;18.50;99.90
19435;DHT22;9853;50.848;4.108;2023-08-17T03:02:23;18.50;99.90
19435;DHT22;9853;50.848;4.108;2023-08-17T03:04:24;18.40;99.90
19435;DHT22;9853;50.848;4.108;2023-08-17T03:06:25;18.50;99.90
19435;DHT22;9853;50.848;4.108;2023-08-17T03:08:25;18.50;99.90
19435;DHT22;9853;50.848;4.108;2023-08-17T03:10:27;18.50;99.90
19435;DHT22;9853;50.848;4.108;2023-08-17T03:12:28;18.40;99.90
19435;DHT22;9853;50.848;4.108;2023-08-17T03:14:28;18.40;99.90
19435;DHT22;9853;50.848;4.108;2023-08-17T03:16:29;18.50;99.90
19435;DHT22;9853;50.848;4.108;2023-08-17T03:18:30;18.30;99.90
19435;DHT22;9853;50.848;4.108;2023-08-17T03:20:31;18.40;99.90
19435;DHT22;9853;50.848;4.108;2023-08-17T03:22:33;18.40;99.90
19435;DHT22;9853;50.848;4.108;2023-08-17T03:24:34;18.60;99.90
19435;DHT22;9853;50.848;4.108;2023-08-17T03:26:35;18.70;99.90
19435;DHT22;9853;50.848;4.108;2023-08-17T03:28:35;18.60;99.90
19435;DHT22;9853;50.848;4.108;2023-08-17T03:30:36;18.70;99.90
19435;DHT22;9853;50.848;4.108;2023-08-17T03:32:37;18.80;99.90
19435;DHT22;9853;50.848;4.108;2023-08-17T03:34:38;18.80;99.90
19435;DHT22;9853;50.848;4.108;2023-08-17T03:36:38;18.80;99.90
19435;DHT22;9853;50.848;4.108;2023-08-17T03:38:39;18.70;99.90
19435;DHT22;9853;50.848;4.108;2023-08-17T03:40:40;18.60;99.90
19435;DHT22;9853;50.848;4.108;2023-08-17T03:42:41;18.70;99.90
19435;DHT22;9853;50.848;4.108;2023-08-17T03:44:42;18.70;99.90
19435;DHT22;9853;50.848;4.108;2023-08-17T03:46:43;18.60;99.90
19435;DHT22;9853;50.848;4.108;2023-08-17T03:48:44;18.70;99.90
19435;DHT22;9853;50.848;4.108;2023-08-17T03:50:44;18.80;99.90
19435;DHT22;9853;50.848;4.108;2023-08-17T03:52:46;18.80;99.90
19435;DHT22;9853;50.848;4.108;2023-08-17T03:54:47;18.80;99.90
19435;DHT22;9853;50.848;4.108;2023-08-17T03:56:48;18.80;99.90
19435;DHT22;9853;50.848;4.108;2023-08-17T03:58:50;18.70;99.90
19435;DHT22;9853;50.848;4.108;2023-08-17T04:00:51;18.70;99.90
19435;DHT22;9853;50.848;4.108;2023-08-17T04:02:58;18.70;99.90
19435;DHT22;9853;50.848;4.108;2023-08-17T04:04:59;18.70;99.90
19435;DHT22;9853;50.848;4.108;2023-08-17T04:07:00;18.70;99.90
19435;DHT22;9853;50.848;4.108;2023-08-17T04:09:01;18.70;99.90
19435;DHT22;9853;50.848;4.108;2023-08-17T04:11:01;18.60;99.90
19435;DHT22;9853;50.848;4.108;2023-08-17T04:13:02;18.50;99.90
19435;DHT22;9853;50.848;4.108;2023-08-17T04:15:04;18.40;99.90
19435;DHT22;9853;50.848;4.108;2023-08-17T04:17:05;18.30;99.90
19435;DHT22;9853;50.848;4.108;2023-08-17T04:19:07;18.20;99.90
19435;DHT22;9853;50.848;4.108;2023-08-17T04:21:08;18.30;99.90
19435;DHT22;9853;50.848;4.108;2023-08-17T04:23:09;18.30;99.90
19435;DHT22;9853;50.848;4.108;2023-08-17T04:25:10;18.20;99.90
19435;DHT22;9853;50.848;4.108;2023-08-17T04:27:11;18.30;99.90
19435;DHT22;9853;50.848;4.108;2023-08-17T04:29:14;18.30;99.90
19435;DHT22;9853;50.848;4.108;2023-08-17T04:31:15;18.40;99.90
19435;DHT22;9853;50.848;4.108;2023-08-17T04:33:17;18.40;99.90
19435;DHT22;9853;50.848;4.108;2023-08-17T04:35:19;18.40;99.90
19435;DHT22;9853;50.848;4.108;2023-08-17T04:37:20;18.50;99.90
19435;DHT22;9853;50.848;4.108;2023-08-17T04:39:20;18.50;99.90
19435;DHT22;9853;50.848;4.108;2023-08-17T04:41:21;18.50;99.90
19435;DHT22;9853;50.848;4.108;2023-08-17T04:43:22;18.50;99.90
19435;DHT22;9853;50.848;4.108;2023-08-17T04:45:23;18.50;99.90
19435;DHT22;9853;50.848;4.108;2023-08-17T04:47:24;18.50;99.90
19435;DHT22;9853;50.848;4.108;2023-08-17T04:49:25;18.60;99.90
19435;DHT22;9853;50.848;4.108;2023-08-17T04:51:26;18.60;99.90
19435;DHT22;9853;50.848;4.108;2023-08-17T04:53:27;18.80;99.90
19435;DHT22;9853;50.848;4.108;2023-08-17T04:55:28;18.70;99.90
19435;DHT22;9853;50.848;4.108;2023-08-17T04:57:29;18.80;99.90
19435;DHT22;9853;50.848;4.108;2023-08-17T04:59:32;18.70;99.90
19435;DHT22;9853;50.848;4.108;2023-08-17T05:01:33;18.60;99.90
19435;DHT22;9853;50.848;4.108;2023-08-17T05:03:33;18.50;99.90
19435;DHT22;9853;50.848;4.108;2023-08-17T05:05:35;18.40;99.90
19435;DHT22;9853;50.848;4.108;2023-08-17T05:07:38;18.30;99.90
19435;DHT22;9853;50.848;4.108;2023-08-17T05:09:39;18.40;99.90
19435;DHT22;9853;50.848;4.108;2023-08-17T05:11:41;18.30;99.90
19435;DHT22;9853;50.848;4.108;2023-08-17T05:13:42;18.40;99.90
19435;DHT22;9853;50.848;4.108;2023-08-17T05:15:42;18.30;99.90
19435;DHT22;9853;50.848;4.108;2023-08-17T05:17:44;18.30;99.90
19435;DHT22;9853;50.848;4.108;2023-08-17T05:19:46;18.30;99.90
19435;DHT22;9853;50.848;4.108;2023-08-17T05:21:47;18.40;99.90
19435;DHT22;9853;50.848;4.108;2023-08-17T05:23:50;18.50;99.90
19435;DHT22;9853;50.848;4.108;2023-08-17T05:25:51;18.50;99.90
19435;DHT22;9853;50.848;4.108;2023-08-17T05:27:52;18.60;99.90
19435;DHT22;9853;50.848;4.108;2023-08-17T05:29:54;18.60;99.90
19435;DHT22;9853;50.848;4.108;2023-08-17T05:31:56;18.60;99.90
19435;DHT22;9853;50.848;4.108;2023-08-17T05:33:57;18.50;99.90
19435;DHT22;9853;50.848;4.108;2023-08-17T05:35:59;18.50;99.90
19435;DHT22;9853;50.848;4.108;2023-08-17T05:38:00;18.50;99.90
19435;DHT22;9853;50.848;4.108;2023-08-17T05:40:01;18.50;99.90
19435;DHT22;9853;50.848;4.108;2023-08-17T05:42:02;18.50;99.90
19435;DHT22;9853;50.848;4.108;2023-08-17T05:44:02;18.60;99.90
19435;DHT22;9853;50.848;4.108;2023-08-17T05:46:03;18.60;99.90
19435;DHT22;9853;50.848;4.108;2023-08-17T05:48:05;18.60;99.90
19435;DHT22;9853;50.848;4.108;2023-08-17T05:50:07;18.60;99.90
19435;DHT22;9853;50.848;4.108;2023-08-17T05:52:08;18.60;99.90
19435;DHT22;9853;50.848;4.108;2023-08-17T05:54:08;18.60;99.90
19435;DHT22;9853;50.848;4.108;2023-08-17T05:56:09;18.60;99.90
19435;DHT22;9853;50.848;4.108;2023-08-17T05:58:10;18.60;99.90
19435;DHT22;9853;50.848;4.108;2023-08-17T06:00:11;18.60;99.90
19435;DHT22;9853;50.848;4.108;2023-08-17T06:02:17;18.70;99.90
19435;DHT22;9853;50.848;4.108;2023-08-17T06:04:17;18.70;99.90
19435;DHT22;9853;50.848;4.108;2023-08-17T06:06:18;18.60;99.90
19435;DHT22;9853;50.848;4.108;2023-08-17T06:08:19;18.60;99.90
19435;DHT22;9853;50.848;4.108;2023-08-17T06:10:20;18.60;99.90
19435;DHT22;9853;50.848;4.108;2023-08-17T06:12:21;18.60;99.90
19435;DHT22;9853;50.848;4.108;2023-08-17T06:14:22;18.70;99.90
19435;DHT22;9853;50.848;4.108;2023-08-17T06:16:22;18.80;99.90
19435;DHT22;9853;50.848;4.108;2023-08-17T06:18:23;18.90;99.90
19435;DHT22;9853;50.848;4.108;2023-08-17T06:20:24;18.80;99.90
19435;DHT22;9853;50.848;4.108;2023-08-17T06:22:25;18.80;99.90
19435;DHT22;9853;50.848;4.108;2023-08-17T06:24:25;18.90;99.90
19435;DHT22;9853;50.848;4.108;2023-08-17T06:26:26;19.00;99.90
19435;DHT22;9853;50.848;4.108;2023-08-17T06:28:27;19.00;99.90
19435;DHT22;9853;50.848;4.108;2023-08-17T06:30:28;19.10;99.90
19435;DHT22;9853;50.848;4.108;2023-08-17T06:32:32;19.10;99.90
19435;DHT22;9853;50.848;4.108;2023-08-17T06:34:33;19.10;99.90
19435;DHT22;9853;50.848;4.108;2023-08-17T06:36:34;19.00;99.90
19435;DHT22;9853;50.848;4.108;2023-08-17T06:38:35;18.90;99.90
19435;DHT22;9853;50.848;4.108;2023-08-17T06:40:35;18.90;99.90
19435;DHT22;9853;50.848;4.108;2023-08-17T06:42:36;19.00;99.90
19435;DHT22;9853;50.848;4.108;2023-08-17T06:44:37;19.00;99.90
19435;DHT22;9853;50.848;4.108;2023-08-17T06:46:38;19.00;99.90
19435;DHT22;9853;50.848;4.108;2023-08-17T06:48:38;19.00;99.90
19435;DHT22;9853;50.848;4.108;2023-08-17T06:50:39;19.10;99.90
19435;DHT22;9853;50.848;4.108;2023-08-17T06:52:40;19.10;99.90
19435;DHT22;9853;50.848;4.108;2023-08-17T06:54:41;19.10;99.90
19435;DHT22;9853;50.848;4.108;2023-08-17T06:56:43;19.00;99.90
19435;DHT22;9853;50.848;4.108;2023-08-17T06:58:43;19.00;99.90
19435;DHT22;9853;50.848;4.108;2023-08-17T07:00:44;19.10;99.90
19435;DHT22;9853;50.848;4.108;2023-08-17T07:02:46;19.10;99.90
19435;DHT22;9853;50.848;4.108;2023-08-17T07:04:48;19.10;99.90
19435;DHT22;9853;50.848;4.108;2023-08-17T07:06:48;19.20;99.90
19435;DHT22;9853;50.848;4.108;2023-08-17T07:08:49;19.10;99.90
19435;DHT22;9853;50.848;4.108;2023-08-17T07:10:50;19.00;99.90
19435;DHT22;9853;50.848;4.108;2023-08-17T07:12:51;19.10;99.90
19435;DHT22;9853;50.848;4.108;2023-08-17T07:14:53;19.20;99.90
19435;DHT22;9853;50.848;4.108;2023-08-17T07:16:53;19.30;99.90
19435;DHT22;9853;50.848;4.108;2023-08-17T07:18:54;19.40;99.90
19435;DHT22;9853;50.848;4.108;2023-08-17T07:20:55;19.40;99.90
19435;DHT22;9853;50.848;4.108;2023-08-17T07:22:56;19.60;99.90
19435;DHT22;9853;50.848;4.108;2023-08-17T07:24:57;19.50;99.90
19435;DHT22;9853;50.848;4.108;2023-08-17T07:26:58;19.40;99.90
19435;DHT22;9853;50.848;4.108;2023-08-17T07:28:58;19.30;99.90
19435;DHT22;9853;50.848;4.108;2023-08-17T07:30:59;19.20;99.90
19435;DHT22;9853;50.848;4.108;2023-08-17T07:33:00;19.20;99.90
19435;DHT22;9853;50.848;4.108;2023-08-17T07:35:01;19.30;99.90
19435;DHT22;9853;50.848;4.108;2023-08-17T07:37:03;19.30;99.90
19435;DHT22;9853;50.848;4.108;2023-08-17T07:39:04;19.30;99.90
19435;DHT22;9853;50.848;4.108;2023-08-17T07:41:05;19.40;99.90
19435;DHT22;9853;50.848;4.108;2023-08-17T07:43:06;19.50;99.90
19435;DHT22;9853;50.848;4.108;2023-08-17T07:45:07;19.50;99.90
19435;DHT22;9853;50.848;4.108;2023-08-17T07:47:08;19.60;99.90
19435;DHT22;9853;50.848;4.108;2023-08-17T07:49:08;19.50;99.90
19435;DHT22;9853;50.848;4.108;2023-08-17T07:51:10;19.50;99.90
19435;DHT22;9853;50.848;4.108;2023-08-17T07:53:10;19.80;99.90
19435;DHT22;9853;50.848;4.108;2023-08-17T07:55:13;19.80;99.90
19435;DHT22;9853;50.848;4.108;2023-08-17T07:57:13;19.80;99.90
19435;DHT22;9853;50.848;4.108;2023-08-17T07:59:14;19.90;99.90
19435;DHT22;9853;50.848;4.108;2023-08-17T08:01:15;19.90;99.90
19435;DHT22;9853;50.848;4.108;2023-08-17T08:03:15;19.90;99.90
19435;DHT22;9853;50.848;4.108;2023-08-17T08:05:16;19.80;99.90
19435;DHT22;9853;50.848;4.108;2023-08-17T08:07:17;19.80;99.90
19435;DHT22;9853;50.848;4.108;2023-08-17T08:09:18;19.70;99.90
19435;DHT22;9853;50.848;4.108;2023-08-17T08:11:18;19.60;99.90
19435;DHT22;9853;50.848;4.108;2023-08-17T08:13:21;19.60;99.90
19435;DHT22;9853;50.848;4.108;2023-08-17T08:15:22;19.70;99.90
19435;DHT22;9853;50.848;4.108;2023-08-17T08:17:23;19.90;99.90
19435;DHT22;9853;50.848;4.108;2023-08-17T08:19:24;20.00;99.90
19435;DHT22;9853;50.848;4.108;2023-08-17T08:21:24;20.00;99.90
19435;DHT22;9853;50.848;4.108;2023-08-17T08:23:27;20.00;99.90
19435;DHT22;9853;50.848;4.108;2023-08-17T08:25:30;20.00;99.90
19435;DHT22;9853;50.848;4.108;2023-08-17T08:27:30;19.90;99.90
19435;DHT22;9853;50.848;4.108;2023-08-17T08:29:31;19.90;99.90
19435;DHT22;9853;50.848;4.108;2023-08-17T08:31:32;19.80;99.90
19435;DHT22;9853;50.848;4.108;2023-08-17T08:33:32;19.90;99.90
19435;DHT22;9853;50.848;4.108;2023-08-17T08:35:33;19.80;99.90
19435;DHT22;9853;50.848;4.108;2023-08-17T08:37:34;19.70;99.90
19435;DHT22;9853;50.848;4.108;2023-08-17T08:39:51;19.50;99.90
19435;DHT22;9853;50.848;4.108;2023-08-17T08:41:52;19.50;99.90
19435;DHT22;9853;50.848;4.108;2023-08-17T08:43:53;19.50;99.90
19435;DHT22;9853;50.848;4.108;2023-08-17T08:45:54;19.40;99.90
19435;DHT22;9853;50.848;4.108;2023-08-17T08:47:57;19.30;99.90
19435;DHT22;9853;50.848;4.108;2023-08-17T08:50:02;19.40;99.90
19435;DHT22;9853;50.848;4.108;2023-08-17T08:52:06;19.50;99.90
19435;DHT22;9853;50.848;4.108;2023-08-17T08:54:08;19.60;99.90
19435;DHT22;9853;50.848;4.108;2023-08-17T08:56:11;19.90;99.90
19435;DHT22;9853;50.848;4.108;2023-08-17T08:58:15;20.10;99.90
19435;DHT22;9853;50.848;4.108;2023-08-17T09:00:17;20.10;99.90
19435;DHT22;9853;50.848;4.108;2023-08-17T09:02:18;20.10;99.90
19435;DHT22;9853;50.848;4.108;2023-08-17T09:04:19;20.10;99.90
19435;DHT22;9853;50.848;4.108;2023-08-17T09:06:22;20.20;99.90
19435;DHT22;9853;50.848;4.108;2023-08-17T09:08:29;20.30;99.90
19435;DHT22;9853;50.848;4.108;2023-08-17T09:10:30;20.30;99.90
19435;DHT22;9853;50.848;4.108;2023-08-17T09:12:31;20.20;99.90
19435;DHT22;9853;50.848;4.108;2023-08-17T09:14:32;20.10;99.90
19435;DHT22;9853;50.848;4.108;2023-08-17T09:16:33;20.10;99.90
19435;DHT22;9853;50.848;4.108;2023-08-17T09:18:34;20.10;99.90
19435;DHT22;9853;50.848;4.108;2023-08-17T09:20:37;20.20;99.90
19435;DHT22;9853;50.848;4.108;2023-08-17T09:22:40;20.20;99.90
19435;DHT22;9853;50.848;4.108;2023-08-17T09:24:41;20.40;99.90
19435;DHT22;9853;50.848;4.108;2023-08-17T09:26:41;20.40;99.90
19435;DHT22;9853;50.848;4.108;2023-08-17T09:28:43;20.40;99.90
19435;DHT22;9853;50.848;4.108;2023-08-17T09:31:01;20.40;99.90
19435;DHT22;9853;50.848;4.108;2023-08-17T09:33:04;20.50;99.90
19435;DHT22;9853;50.848;4.108;2023-08-17T09:35:05;20.50;99.90
19435;DHT22;9853;50.848;4.108;2023-08-17T09:37:06;20.60;99.90
19435;DHT22;9853;50.848;4.108;2023-08-17T09:39:07;20.70;99.90
19435;DHT22;9853;50.848;4.108;2023-08-17T09:41:08;20.80;99.90
19435;DHT22;9853;50.848;4.108;2023-08-17T09:43:10;20.90;99.90
19435;DHT22;9853;50.848;4.108;2023-08-17T09:45:10;21.00;99.90
19435;DHT22;9853;50.848;4.108;2023-08-17T09:47:11;21.00;99.90
19435;DHT22;9853;50.848;4.108;2023-08-17T09:49:12;21.00;99.90
19435;DHT22;9853;50.848;4.108;2023-08-17T09:51:16;20.90;99.90
19435;DHT22;9853;50.848;4.108;2023-08-17T09:53:18;21.00;99.90
19435;DHT22;9853;50.848;4.108;2023-08-17T09:55:21;21.10;99.90
19435;DHT22;9853;50.848;4.108;2023-08-17T09:57:22;21.20;99.90
19435;DHT22;9853;50.848;4.108;2023-08-17T09:59:23;21.20;99.90
19435;DHT22;9853;50.848;4.108;2023-08-17T10:01:25;21.20;99.90
19435;DHT22;9853;50.848;4.108;2023-08-17T10:03:29;21.10;99.90
19435;DHT22;9853;50.848;4.108;2023-08-17T10:05:35;21.00;99.90
19435;DHT22;9853;50.848;4.108;2023-08-17T10:07:43;21.00;99.90
19435;DHT22;9853;50.848;4.108;2023-08-17T10:09:53;21.20;99.90
19435;DHT22;9853;50.848;4.108;2023-08-17T10:11:57;21.30;99.90
19435;DHT22;9853;50.848;4.108;2023-08-17T10:14:02;21.30;99.90
19435;DHT22;9853;50.848;4.108;2023-08-17T10:20:34;21.70;99.90
19435;DHT22;9853;50.848;4.108;2023-08-17T10:23:01;21.90;99.90
19435;DHT22;9853;50.848;4.108;2023-08-17T10:25:05;21.70;99.90
19435;DHT22;9853;50.848;4.108;2023-08-17T10:27:08;21.70;99.90
19435;DHT22;9853;50.848;4.108;2023-08-17T10:29:10;21.60;99.90
19435;DHT22;9853;50.848;4.108;2023-08-17T10:31:11;21.50;99.90
19435;DHT22;9853;50.848;4.108;2023-08-17T10:33:12;22.00;99.90
19435;DHT22;9853;50.848;4.108;2023-08-17T10:35:14;22.30;99.90
19435;DHT22;9853;50.848;4.108;2023-08-17T10:37:15;22.50;99.90
19435;DHT22;9853;50.848;4.108;2023-08-17T10:39:23;22.30;99.90
19435;DHT22;9853;50.848;4.108;2023-08-17T10:41:24;22.40;99.90
19435;DHT22;9853;50.848;4.108;2023-08-17T10:43:33;22.40;99.90
19435;DHT22;9853;50.848;4.108;2023-08-17T10:45:35;22.40;99.90
19435;DHT22;9853;50.848;4.108;2023-08-17T10:47:38;22.50;99.90
19435;DHT22;9853;50.848;4.108;2023-08-17T10:49:42;22.50;99.90
19435;DHT22;9853;50.848;4.108;2023-08-17T10:52:01;22.60;99.90
19435;DHT22;9853;50.848;4.108;2023-08-17T10:54:03;22.70;99.90
19435;DHT22;9853;50.848;4.108;2023-08-17T10:56:07;22.70;99.90
19435;DHT22;9853;50.848;4.108;2023-08-17T10:58:08;22.70;99.90
19435;DHT22;9853;50.848;4.108;2023-08-17T11:00:21;22.70;99.90
19435;DHT22;9853;50.848;4.108;2023-08-17T11:02:32;22.70;99.90
19435;DHT22;9853;50.848;4.108;2023-08-17T11:04:32;22.60;99.90
19435;DHT22;9853;50.848;4.108;2023-08-17T11:06:35;22.50;99.90
19435;DHT22;9853;50.848;4.108;2023-08-17T11:08:39;22.50;99.90
19435;DHT22;9853;50.848;4.108;2023-08-17T11:10:48;22.60;99.90
19435;DHT22;9853;50.848;4.108;2023-08-17T11:12:57;22.40;99.90
19435;DHT22;9853;50.848;4.108;2023-08-17T11:15:02;22.50;99.90
19435;DHT22;9853;50.848;4.108;2023-08-17T11:17:03;22.60;99.90
19435;DHT22;9853;50.848;4.108;2023-08-17T11:19:04;22.70;99.90
19435;DHT22;9853;50.848;4.108;2023-08-17T11:21:06;22.70;99.90
19435;DHT22;9853;50.848;4.108;2023-08-17T11:23:08;22.70;99.90
19435;DHT22;9853;50.848;4.108;2023-08-17T11:25:08;22.40;99.90
19435;DHT22;9853;50.848;4.108;2023-08-17T11:27:09;22.20;99.90
19435;DHT22;9853;50.848;4.108;2023-08-17T11:29:10;22.10;99.90
19435;DHT22;9853;50.848;4.108;2023-08-17T11:31:13;22.20;99.90
19435;DHT22;9853;50.848;4.108;2023-08-17T11:33:14;22.30;99.90
19435;DHT22;9853;50.848;4.108;2023-08-17T11:35:15;22.30;99.90
19435;DHT22;9853;50.848;4.108;2023-08-17T11:37:16;22.30;99.90
19435;DHT22;9853;50.848;4.108;2023-08-17T11:39:17;22.40;99.90
19435;DHT22;9853;50.848;4.108;2023-08-17T11:41:21;22.50;99.90
19435;DHT22;9853;50.848;4.108;2023-08-17T11:43:22;22.60;99.90
19435;DHT22;9853;50.848;4.108;2023-08-17T11:45:23;22.80;99.90
19435;DHT22;9853;50.848;4.108;2023-08-17T11:47:24;22.80;99.90
19435;DHT22;9853;50.848;4.108;2023-08-17T11:49:25;22.80;99.90
19435;DHT22;9853;50.848;4.108;2023-08-17T11:51:32;23.10;99.90
19435;DHT22;9853;50.848;4.108;2023-08-17T11:53:34;23.40;99.90
19435;DHT22;9853;50.848;4.108;2023-08-17T11:55:35;23.40;99.90
19435;DHT22;9853;50.848;4.108;2023-08-17T11:57:36;23.10;99.90
19435;DHT22;9853;50.848;4.108;2023-08-17T11:59:37;22.90;99.90
19435;DHT22;9853;50.848;4.108;2023-08-17T12:01:38;22.90;99.90
19435;DHT22;9853;50.848;4.108;2023-08-17T12:03:39;22.90;99.90
19435;DHT22;9853;50.848;4.108;2023-08-17T12:05:46;22.90;99.90
19435;DHT22;9853;50.848;4.108;2023-08-17T12:07:47;22.70;99.90
19435;DHT22;9853;50.848;4.108;2023-08-17T12:09:48;22.80;99.90
19435;DHT22;9853;50.848;4.108;2023-08-17T12:11:58;22.70;99.90
19435;DHT22;9853;50.848;4.108;2023-08-17T12:13:59;22.80;99.90
19435;DHT22;9853;50.848;4.108;2023-08-17T12:16:00;22.90;99.90
19435;DHT22;9853;50.848;4.108;2023-08-17T12:18:03;23.00;99.90
19435;DHT22;9853;50.848;4.108;2023-08-17T12:20:04;23.00;99.90
19435;DHT22;9853;50.848;4.108;2023-08-17T12:22:05;23.00;99.90
19435;DHT22;9853;50.848;4.108;2023-08-17T12:24:06;23.10;99.90
19435;DHT22;9853;50.848;4.108;2023-08-17T12:26:07;23.30;99.90
19435;DHT22;9853;50.848;4.108;2023-08-17T12:28:08;23.30;99.90
19435;DHT22;9853;50.848;4.108;2023-08-17T12:30:13;23.30;99.90
19435;DHT22;9853;50.848;4.108;2023-08-17T12:32:16;23.40;99.90
19435;DHT22;9853;50.848;4.108;2023-08-17T12:34:17;23.30;99.90
19435;DHT22;9853;50.848;4.108;2023-08-17T12:36:18;23.10;99.90
19435;DHT22;9853;50.848;4.108;2023-08-17T12:38:23;23.20;99.90
19435;DHT22;9853;50.848;4.108;2023-08-17T12:40:24;23.40;99.90
19435;DHT22;9853;50.848;4.108;2023-08-17T12:42:25;23.30;99.90
19435;DHT22;9853;50.848;4.108;2023-08-17T12:44:26;23.20;99.90
19435;DHT22;9853;50.848;4.108;2023-08-17T12:46:26;23.00;99.90
19435;DHT22;9853;50.848;4.108;2023-08-17T12:48:27;22.90;99.90
19435;DHT22;9853;50.848;4.108;2023-08-17T12:50:28;22.80;99.90
19435;DHT22;9853;50.848;4.108;2023-08-17T12:52:29;22.70;99.90
19435;DHT22;9853;50.848;4.108;2023-08-17T12:54:30;22.90;99.90
19435;DHT22;9853;50.848;4.108;2023-08-17T12:56:30;23.00;99.90
19435;DHT22;9853;50.848;4.108;2023-08-17T12:58:31;22.90;99.90
19435;DHT22;9853;50.848;4.108;2023-08-17T13:00:32;23.10;99.90
19435;DHT22;9853;50.848;4.108;2023-08-17T13:02:33;23.20;99.90
19435;DHT22;9853;50.848;4.108;2023-08-17T13:04:34;23.30;99.90
19435;DHT22;9853;50.848;4.108;2023-08-17T13:06:35;23.30;99.90
19435;DHT22;9853;50.848;4.108;2023-08-17T13:08:35;23.20;99.90